sensor_id;sensor_type;location;lat;lon;timestamp;temperature;humidity
57026;DHT22;43961;52.940;6.834;2022-12-29T00:01:38;9.50;99.90
57026;DHT22;43961;52.940;6.834;2022-12-29T00:04:04;9.50;99.90
57026;DHT22;43961;52.940;6.834;2022-12-29T00:06:30;9.50;99.90
57026;DHT22;43961;52.940;6.834;2022-12-29T00:08:59;9.60;99.90
57026;DHT22;43961;52.940;6.834;2022-12-29T00:11:26;9.60;99.90
57026;DHT22;43961;52.940;6.834;2022-12-29T00:13:53;9.60;99.90
57026;DHT22;43961;52.940;6.834;2022-12-29T00:16:39;9.60;99.90
57026;DHT22;43961;52.940;6.834;2022-12-29T00:19:05;9.60;99.90
57026;DHT22;43961;52.940;6.834;2022-12-29T00:21:31;9.60;99.90
57026;DHT22;43961;52.940;6.834;2022-12-29T00:24:20;9.60;99.90
57026;DHT22;43961;52.940;6.834;2022-12-29T00:29:48;9.60;99.90
57026;DHT22;43961;52.940;6.834;2022-12-29T00:32:32;9.60;99.90
57026;DHT22;43961;52.940;6.834;2022-12-29T00:35:38;9.60;99.90
57026;DHT22;43961;52.940;6.834;2022-12-29T00:38:06;9.60;99.90
57026;DHT22;43961;52.940;6.834;2022-12-29T00:40:52;9.60;99.90
57026;DHT22;43961;52.940;6.834;2022-12-29T00:43:36;9.70;99.90
57026;DHT22;43961;52.940;6.834;2022-12-29T00:46:20;9.60;99.90
57026;DHT22;43961;52.940;6.834;2022-12-29T00:48:46;9.70;99.90
57026;DHT22;43961;52.940;6.834;2022-12-29T00:51:30;9.70;99.90
57026;DHT22;43961;52.940;6.834;2022-12-29T00:53:55;9.70;99.90
57026;DHT22;43961;52.940;6.834;2022-12-29T00:56:21;9.70;99.90
57026;DHT22;43961;52.940;6.834;2022-12-29T00:58:47;9.70;99.90
57026;DHT22;43961;52.940;6.834;2022-12-29T01:01:12;9.70;99.90
57026;DHT22;43961;52.940;6.834;2022-12-29T01:03:38;9.70;99.90
57026;DHT22;43961;52.940;6.834;2022-12-29T01:06:06;9.80;99.90
57026;DHT22;43961;52.940;6.834;2022-12-29T01:08:33;9.80;99.90
57026;DHT22;43961;52.940;6.834;2022-12-29T01:11:08;9.70;99.90
57026;DHT22;43961;52.940;6.834;2022-12-29T01:13:34;9.70;99.90
57026;DHT22;43961;52.940;6.834;2022-12-29T01:16:01;9.80;99.90
57026;DHT22;43961;52.940;6.834;2022-12-29T01:18:27;9.80;99.90
57026;DHT22;43961;52.940;6.834;2022-12-29T01:21:04;9.80;99.90
57026;DHT22;43961;52.940;6.834;2022-12-29T01:23:31;9.80;99.90
57026;DHT22;43961;52.940;6.834;2022-12-29T01:25:57;9.80;99.90
57026;DHT22;43961;52.940;6.834;2022-12-29T01:28:23;9.80;99.90
57026;DHT22;43961;52.940;6.834;2022-12-29T01:30:49;9.80;99.90
57026;DHT22;43961;52.940;6.834;2022-12-29T01:33:15;9.90;99.90
57026;DHT22;43961;52.940;6.834;2022-12-29T01:35:40;9.90;99.90
57026;DHT22;43961;52.940;6.834;2022-12-29T01:38:06;9.90;99.90
57026;DHT22;43961;52.940;6.834;2022-12-29T01:40:33;9.90;99.90
57026;DHT22;43961;52.940;6.834;2022-12-29T01:42:58;9.90;99.90
57026;DHT22;43961;52.940;6.834;2022-12-29T01:45:24;9.90;99.90
57026;DHT22;43961;52.940;6.834;2022-12-29T01:47:53;9.90;99.90
57026;DHT22;43961;52.940;6.834;2022-12-29T01:50:30;10.00;99.90
57026;DHT22;43961;52.940;6.834;2022-12-29T01:53:05;10.00;99.90
57026;DHT22;43961;52.940;6.834;2022-12-29T01:55:40;10.00;99.90
57026;DHT22;43961;52.940;6.834;2022-12-29T01:58:07;10.00;99.90
57026;DHT22;43961;52.940;6.834;2022-12-29T02:00:33;9.90;99.90
57026;DHT22;43961;52.940;6.834;2022-12-29T02:02:59;10.00;99.90
57026;DHT22;43961;52.940;6.834;2022-12-29T02:06:10;10.00;99.90
57026;DHT22;43961;52.940;6.834;2022-12-29T02:08:28;10.00;99.90
57026;DHT22;43961;52.940;6.834;2022-12-29T02:10:55;10.10;99.90
57026;DHT22;43961;52.940;6.834;2022-12-29T02:13:24;10.10;99.90
57026;DHT22;43961;52.940;6.834;2022-12-29T02:19:02;10.10;99.90
57026;DHT22;43961;52.940;6.834;2022-12-29T02:32:43;10.20;99.90
57026;DHT22;43961;52.940;6.834;2022-12-29T02:38:38;10.20;99.90
57026;DHT22;43961;52.940;6.834;2022-12-29T02:46:44;10.20;99.90
57026;DHT22;43961;52.940;6.834;2022-12-29T02:49:27;10.10;99.90
57026;DHT22;43961;52.940;6.834;2022-12-29T02:52:11;10.10;99.90
57026;DHT22;43961;52.940;6.834;2022-12-29T02:54:40;10.10;99.90
57026;DHT22;43961;52.940;6.834;2022-12-29T02:57:12;10.10;99.90
57026;DHT22;43961;52.940;6.834;2022-12-29T02:59:39;10.10;99.90
57026;DHT22;43961;52.940;6.834;2022-12-29T03:02:37;10.10;99.90
57026;DHT22;43961;52.940;6.834;2022-12-29T03:05:17;10.10;99.90
57026;DHT22;43961;52.940;6.834;2022-12-29T03:16:21;10.10;99.90
57026;DHT22;43961;52.940;6.834;2022-12-29T03:19:08;10.00;99.90
57026;DHT22;43961;52.940;6.834;2022-12-29T03:21:43;10.00;99.90
57026;DHT22;43961;52.940;6.834;2022-12-29T03:24:36;10.00;99.90
57026;DHT22;43961;52.940;6.834;2022-12-29T03:27:05;10.00;99.90
57026;DHT22;43961;52.940;6.834;2022-12-29T03:29:36;10.00;99.90
57026;DHT22;43961;52.940;6.834;2022-12-29T03:32:05;10.00;99.90
57026;DHT22;43961;52.940;6.834;2022-12-29T03:34:33;10.00;99.90
57026;DHT22;43961;52.940;6.834;2022-12-29T03:37:07;10.00;99.90
57026;DHT22;43961;52.940;6.834;2022-12-29T03:39:35;10.00;99.90
57026;DHT22;43961;52.940;6.834;2022-12-29T03:42:07;10.00;99.90
57026;DHT22;43961;52.940;6.834;2022-12-29T03:44:42;10.00;99.90
57026;DHT22;43961;52.940;6.834;2022-12-29T03:47:09;10.00;99.90
57026;DHT22;43961;52.940;6.834;2022-12-29T03:49:35;10.00;99.90
57026;DHT22;43961;52.940;6.834;2022-12-29T03:52:01;10.00;99.90
57026;DHT22;43961;52.940;6.834;2022-12-29T03:54:27;10.00;99.90
57026;DHT22;43961;52.940;6.834;2022-12-29T03:56:53;10.00;99.90
57026;DHT22;43961;52.940;6.834;2022-12-29T03:59:18;10.00;99.90
57026;DHT22;43961;52.940;6.834;2022-12-29T04:01:44;10.00;99.90
57026;DHT22;43961;52.940;6.834;2022-12-29T04:04:09;10.00;99.90
57026;DHT22;43961;52.940;6.834;2022-12-29T04:06:35;10.00;99.90
57026;DHT22;43961;52.940;6.834;2022-12-29T04:09:01;10.00;99.90
57026;DHT22;43961;52.940;6.834;2022-12-29T04:11:27;10.10;99.90
57026;DHT22;43961;52.940;6.834;2022-12-29T04:13:52;10.00;99.90
57026;DHT22;43961;52.940;6.834;2022-12-29T04:16:20;10.00;99.90
57026;DHT22;43961;52.940;6.834;2022-12-29T04:18:45;9.90;99.90
57026;DHT22;43961;52.940;6.834;2022-12-29T04:21:11;9.90;99.90
57026;DHT22;43961;52.940;6.834;2022-12-29T04:23:38;9.90;99.90
57026;DHT22;43961;52.940;6.834;2022-12-29T04:26:04;9.90;99.90
57026;DHT22;43961;52.940;6.834;2022-12-29T04:28:32;9.80;99.90
57026;DHT22;43961;52.940;6.834;2022-12-29T04:30:59;9.80;99.90
57026;DHT22;43961;52.940;6.834;2022-12-29T04:33:25;9.80;99.90
57026;DHT22;43961;52.940;6.834;2022-12-29T04:35:51;9.80;99.90
57026;DHT22;43961;52.940;6.834;2022-12-29T04:38:22;9.70;99.90
57026;DHT22;43961;52.940;6.834;2022-12-29T04:40:48;9.70;99.90
57026;DHT22;43961;52.940;6.834;2022-12-29T04:43:15;9.60;99.90
57026;DHT22;43961;52.940;6.834;2022-12-29T04:45:48;9.60;99.90
57026;DHT22;43961;52.940;6.834;2022-12-29T04:48:14;9.60;99.90
57026;DHT22;43961;52.940;6.834;2022-12-29T04:50:41;9.50;99.90
57026;DHT22;43961;52.940;6.834;2022-12-29T04:53:07;9.50;99.90
57026;DHT22;43961;52.940;6.834;2022-12-29T04:55:33;9.50;99.90
57026;DHT22;43961;52.940;6.834;2022-12-29T04:58:00;9.50;99.90
57026;DHT22;43961;52.940;6.834;2022-12-29T05:00:25;9.50;99.90
57026;DHT22;43961;52.940;6.834;2022-12-29T05:02:51;9.50;99.90
57026;DHT22;43961;52.940;6.834;2022-12-29T05:05:17;9.50;99.90
57026;DHT22;43961;52.940;6.834;2022-12-29T05:07:43;9.50;99.90
57026;DHT22;43961;52.940;6.834;2022-12-29T05:10:09;9.50;99.90
57026;DHT22;43961;52.940;6.834;2022-12-29T05:12:38;9.50;99.90
57026;DHT22;43961;52.940;6.834;2022-12-29T05:15:05;9.50;99.90
57026;DHT22;43961;52.940;6.834;2022-12-29T05:17:31;9.50;99.90
57026;DHT22;43961;52.940;6.834;2022-12-29T05:19:57;9.50;99.90
57026;DHT22;43961;52.940;6.834;2022-12-29T05:22:23;9.40;99.90
57026;DHT22;43961;52.940;6.834;2022-12-29T05:24:49;9.40;99.90
57026;DHT22;43961;52.940;6.834;2022-12-29T05:27:14;9.40;99.90
57026;DHT22;43961;52.940;6.834;2022-12-29T05:29:40;9.30;99.90
57026;DHT22;43961;52.940;6.834;2022-12-29T05:32:06;9.30;99.90
57026;DHT22;43961;52.940;6.834;2022-12-29T05:34:31;9.30;99.90
57026;DHT22;43961;52.940;6.834;2022-12-29T05:36:57;9.30;99.90
57026;DHT22;43961;52.940;6.834;2022-12-29T05:39:23;9.30;99.90
57026;DHT22;43961;52.940;6.834;2022-12-29T05:41:48;9.30;99.90
57026;DHT22;43961;52.940;6.834;2022-12-29T05:44:14;9.30;99.90
57026;DHT22;43961;52.940;6.834;2022-12-29T05:46:40;9.30;99.90
57026;DHT22;43961;52.940;6.834;2022-12-29T05:49:06;9.30;99.90
57026;DHT22;43961;52.940;6.834;2022-12-29T05:51:32;9.20;99.90
57026;DHT22;43961;52.940;6.834;2022-12-29T05:53:58;9.20;99.90
57026;DHT22;43961;52.940;6.834;2022-12-29T05:56:23;9.20;99.90
57026;DHT22;43961;52.940;6.834;2022-12-29T05:58:49;9.20;99.90
57026;DHT22;43961;52.940;6.834;2022-12-29T06:01:15;9.20;99.90
57026;DHT22;43961;52.940;6.834;2022-12-29T06:03:40;9.20;99.90
57026;DHT22;43961;52.940;6.834;2022-12-29T06:06:06;9.20;99.90
57026;DHT22;43961;52.940;6.834;2022-12-29T06:08:32;9.20;99.90
57026;DHT22;43961;52.940;6.834;2022-12-29T06:10:58;9.10;99.90
57026;DHT22;43961;52.940;6.834;2022-12-29T06:13:24;9.10;99.90
57026;DHT22;43961;52.940;6.834;2022-12-29T06:15:51;9.10;99.90
57026;DHT22;43961;52.940;6.834;2022-12-29T06:18:16;9.10;99.90
57026;DHT22;43961;52.940;6.834;2022-12-29T06:20:42;9.10;99.90
57026;DHT22;43961;52.940;6.834;2022-12-29T06:23:07;9.20;99.90
57026;DHT22;43961;52.940;6.834;2022-12-29T06:25:33;9.10;99.90
57026;DHT22;43961;52.940;6.834;2022-12-29T06:28:02;9.10;99.90
57026;DHT22;43961;52.940;6.834;2022-12-29T06:30:28;9.10;99.90
57026;DHT22;43961;52.940;6.834;2022-12-29T06:32:53;9.10;99.90
57026;DHT22;43961;52.940;6.834;2022-12-29T06:35:20;9.10;99.90
57026;DHT22;43961;52.940;6.834;2022-12-29T06:37:48;9.10;99.90
57026;DHT22;43961;52.940;6.834;2022-12-29T06:40:13;9.20;99.90
57026;DHT22;43961;52.940;6.834;2022-12-29T06:42:39;9.10;99.90
57026;DHT22;43961;52.940;6.834;2022-12-29T06:45:05;9.10;99.90
57026;DHT22;43961;52.940;6.834;2022-12-29T06:47:31;9.20;99.90
57026;DHT22;43961;52.940;6.834;2022-12-29T06:49:56;9.20;99.90
57026;DHT22;43961;52.940;6.834;2022-12-29T06:52:22;9.20;99.90
57026;DHT22;43961;52.940;6.834;2022-12-29T06:54:49;9.20;99.90
57026;DHT22;43961;52.940;6.834;2022-12-29T06:57:15;9.20;99.90
57026;DHT22;43961;52.940;6.834;2022-12-29T06:59:41;9.30;99.90
57026;DHT22;43961;52.940;6.834;2022-12-29T07:02:08;9.30;99.90
57026;DHT22;43961;52.940;6.834;2022-12-29T07:04:34;9.30;99.90
57026;DHT22;43961;52.940;6.834;2022-12-29T07:07:00;9.30;99.90
57026;DHT22;43961;52.940;6.834;2022-12-29T07:09:25;9.30;99.90
57026;DHT22;43961;52.940;6.834;2022-12-29T07:11:51;9.30;99.90
57026;DHT22;43961;52.940;6.834;2022-12-29T07:14:17;9.20;99.90
57026;DHT22;43961;52.940;6.834;2022-12-29T07:16:42;9.30;99.90
57026;DHT22;43961;52.940;6.834;2022-12-29T07:19:08;9.20;99.90
57026;DHT22;43961;52.940;6.834;2022-12-29T07:21:34;9.20;99.90
57026;DHT22;43961;52.940;6.834;2022-12-29T07:24:00;9.10;99.90
57026;DHT22;43961;52.940;6.834;2022-12-29T07:26:25;9.20;99.90
57026;DHT22;43961;52.940;6.834;2022-12-29T07:28:51;9.20;99.90
57026;DHT22;43961;52.940;6.834;2022-12-29T07:31:19;9.20;99.90
57026;DHT22;43961;52.940;6.834;2022-12-29T07:33:46;9.20;99.90
57026;DHT22;43961;52.940;6.834;2022-12-29T07:36:12;9.10;99.90
57026;DHT22;43961;52.940;6.834;2022-12-29T07:38:38;9.10;99.90
57026;DHT22;43961;52.940;6.834;2022-12-29T07:41:04;9.10;99.90
57026;DHT22;43961;52.940;6.834;2022-12-29T07:43:30;9.10;99.90
57026;DHT22;43961;52.940;6.834;2022-12-29T07:45:56;9.20;99.90
57026;DHT22;43961;52.940;6.834;2022-12-29T07:48:23;9.20;99.90
57026;DHT22;43961;52.940;6.834;2022-12-29T07:50:48;9.10;99.90
57026;DHT22;43961;52.940;6.834;2022-12-29T07:53:15;9.10;99.90
57026;DHT22;43961;52.940;6.834;2022-12-29T07:55:40;9.20;99.90
57026;DHT22;43961;52.940;6.834;2022-12-29T07:58:06;9.20;99.90
57026;DHT22;43961;52.940;6.834;2022-12-29T08:00:32;9.20;99.90
57026;DHT22;43961;52.940;6.834;2022-12-29T08:02:58;9.20;99.90
57026;DHT22;43961;52.940;6.834;2022-12-29T08:05:24;9.20;99.90
57026;DHT22;43961;52.940;6.834;2022-12-29T08:07:50;9.10;99.90
57026;DHT22;43961;52.940;6.834;2022-12-29T08:10:16;9.20;99.90
57026;DHT22;43961;52.940;6.834;2022-12-29T08:12:43;9.20;99.90
57026;DHT22;43961;52.940;6.834;2022-12-29T08:15:11;9.20;99.90
57026;DHT22;43961;52.940;6.834;2022-12-29T08:17:37;9.20;99.90
57026;DHT22;43961;52.940;6.834;2022-12-29T08:20:03;9.20;99.90
57026;DHT22;43961;52.940;6.834;2022-12-29T08:22:29;9.20;99.90
57026;DHT22;43961;52.940;6.834;2022-12-29T08:24:55;9.20;99.90
57026;DHT22;43961;52.940;6.834;2022-12-29T08:27:20;9.20;99.90
57026;DHT22;43961;52.940;6.834;2022-12-29T08:29:46;9.10;99.90
57026;DHT22;43961;52.940;6.834;2022-12-29T08:32:12;9.10;99.90
57026;DHT22;43961;52.940;6.834;2022-12-29T08:34:38;9.20;99.90
57026;DHT22;43961;52.940;6.834;2022-12-29T08:37:04;9.10;99.90
57026;DHT22;43961;52.940;6.834;2022-12-29T08:39:29;9.10;99.90
57026;DHT22;43961;52.940;6.834;2022-12-29T08:41:55;9.20;99.90
57026;DHT22;43961;52.940;6.834;2022-12-29T08:44:21;9.10;99.90
57026;DHT22;43961;52.940;6.834;2022-12-29T08:46:47;9.10;99.90
57026;DHT22;43961;52.940;6.834;2022-12-29T08:49:12;9.20;99.90
57026;DHT22;43961;52.940;6.834;2022-12-29T08:51:38;9.20;99.90
57026;DHT22;43961;52.940;6.834;2022-12-29T08:54:04;9.20;99.90
57026;DHT22;43961;52.940;6.834;2022-12-29T08:56:29;9.20;99.90
57026;DHT22;43961;52.940;6.834;2022-12-29T08:58:55;9.30;99.90
57026;DHT22;43961;52.940;6.834;2022-12-29T09:01:21;9.20;99.90
57026;DHT22;43961;52.940;6.834;2022-12-29T09:03:47;9.30;99.90
57026;DHT22;43961;52.940;6.834;2022-12-29T09:06:13;9.20;99.90
57026;DHT22;43961;52.940;6.834;2022-12-29T09:08:39;9.20;99.90
57026;DHT22;43961;52.940;6.834;2022-12-29T09:11:07;9.20;99.90
57026;DHT22;43961;52.940;6.834;2022-12-29T09:13:33;9.20;99.90
57026;DHT22;43961;52.940;6.834;2022-12-29T09:16:01;9.30;99.90
57026;DHT22;43961;52.940;6.834;2022-12-29T09:18:27;9.30;99.90
57026;DHT22;43961;52.940;6.834;2022-12-29T09:21:00;9.30;99.90
57026;DHT22;43961;52.940;6.834;2022-12-29T09:23:26;9.30;99.90
57026;DHT22;43961;52.940;6.834;2022-12-29T09:25:53;9.40;99.90
57026;DHT22;43961;52.940;6.834;2022-12-29T09:28:19;9.30;99.90
57026;DHT22;43961;52.940;6.834;2022-12-29T09:30:45;9.30;99.90
57026;DHT22;43961;52.940;6.834;2022-12-29T09:33:10;9.30;99.90
57026;DHT22;43961;52.940;6.834;2022-12-29T09:35:36;9.30;99.90
57026;DHT22;43961;52.940;6.834;2022-12-29T09:38:01;9.20;99.90
57026;DHT22;43961;52.940;6.834;2022-12-29T09:40:30;9.20;99.90
57026;DHT22;43961;52.940;6.834;2022-12-29T09:45:33;9.20;99.90
57026;DHT22;43961;52.940;6.834;2022-12-29T09:48:00;9.20;99.90
57026;DHT22;43961;52.940;6.834;2022-12-29T09:50:33;9.20;99.90
57026;DHT22;43961;52.940;6.834;2022-12-29T09:56:00;9.20;99.90
57026;DHT22;43961;52.940;6.834;2022-12-29T10:01:38;9.20;99.90
57026;DHT22;43961;52.940;6.834;2022-12-29T10:04:07;9.20;99.90
57026;DHT22;43961;52.940;6.834;2022-12-29T10:06:47;9.20;99.90
57026;DHT22;43961;52.940;6.834;2022-12-29T10:09:26;9.20;99.90
57026;DHT22;43961;52.940;6.834;2022-12-29T10:15:01;9.10;99.90
57026;DHT22;43961;52.940;6.834;2022-12-29T10:23:18;9.00;99.90
57026;DHT22;43961;52.940;6.834;2022-12-29T10:25:46;8.90;99.90
57026;DHT22;43961;52.940;6.834;2022-12-29T10:31:05;8.90;99.90
57026;DHT22;43961;52.940;6.834;2022-12-29T10:33:36;8.90;99.90
57026;DHT22;43961;52.940;6.834;2022-12-29T10:36:15;8.90;99.90
57026;DHT22;43961;52.940;6.834;2022-12-29T10:44:31;8.80;99.90
57026;DHT22;43961;52.940;6.834;2022-12-29T10:47:03;8.80;99.90
57026;DHT22;43961;52.940;6.834;2022-12-29T10:49:34;8.90;99.90
57026;DHT22;43961;52.940;6.834;2022-12-29T10:52:03;8.80;99.90
57026;DHT22;43961;52.940;6.834;2022-12-29T10:54:42;8.80;99.90
57026;DHT22;43961;52.940;6.834;2022-12-29T10:57:17;8.80;99.90
57026;DHT22;43961;52.940;6.834;2022-12-29T10:59:46;8.80;99.90
57026;DHT22;43961;52.940;6.834;2022-12-29T11:05:02;8.90;99.90
57026;DHT22;43961;52.940;6.834;2022-12-29T11:07:29;9.00;99.90
57026;DHT22;43961;52.940;6.834;2022-12-29T11:09:56;9.00;99.90
57026;DHT22;43961;52.940;6.834;2022-12-29T11:12:40;9.00;99.90
57026;DHT22;43961;52.940;6.834;2022-12-29T11:17:46;9.10;99.90
57026;DHT22;43961;52.940;6.834;2022-12-29T11:20:31;9.10;99.90
57026;DHT22;43961;52.940;6.834;2022-12-29T11:22:58;9.10;99.90
57026;DHT22;43961;52.940;6.834;2022-12-29T11:25:24;9.20;99.90
57026;DHT22;43961;52.940;6.834;2022-12-29T11:28:16;9.20;99.90
57026;DHT22;43961;52.940;6.834;2022-12-29T11:30:42;9.20;99.90
57026;DHT22;43961;52.940;6.834;2022-12-29T11:33:09;9.20;99.90
57026;DHT22;43961;52.940;6.834;2022-12-29T11:35:43;9.20;99.90
57026;DHT22;43961;52.940;6.834;2022-12-29T11:38:21;9.30;99.90
57026;DHT22;43961;52.940;6.834;2022-12-29T11:40:48;9.30;99.90
57026;DHT22;43961;52.940;6.834;2022-12-29T11:43:34;9.30;99.90
57026;DHT22;43961;52.940;6.834;2022-12-29T11:46:04;9.30;99.90
57026;DHT22;43961;52.940;6.834;2022-12-29T11:48:38;9.40;99.90
57026;DHT22;43961;52.940;6.834;2022-12-29T11:51:05;9.40;99.90
57026;DHT22;43961;52.940;6.834;2022-12-29T11:53:44;9.40;99.90
57026;DHT22;43961;52.940;6.834;2022-12-29T11:56:14;9.40;99.90
57026;DHT22;43961;52.940;6.834;2022-12-29T11:58:40;9.30;99.90
57026;DHT22;43961;52.940;6.834;2022-12-29T12:03:50;9.30;99.90
57026;DHT22;43961;52.940;6.834;2022-12-29T12:06:22;9.30;99.90
57026;DHT22;43961;52.940;6.834;2022-12-29T12:09:01;9.30;99.90
57026;DHT22;43961;52.940;6.834;2022-12-29T12:11:46;9.40;99.90
57026;DHT22;43961;52.940;6.834;2022-12-29T12:14:23;9.40;99.90
57026;DHT22;43961;52.940;6.834;2022-12-29T12:16:59;9.40;99.90
57026;DHT22;43961;52.940;6.834;2022-12-29T12:22:19;9.40;99.90
57026;DHT22;43961;52.940;6.834;2022-12-29T12:24:53;9.50;99.90
57026;DHT22;43961;52.940;6.834;2022-12-29T12:30:17;9.50;99.90
57026;DHT22;43961;52.940;6.834;2022-12-29T12:35:43;9.60;99.90
57026;DHT22;43961;52.940;6.834;2022-12-29T12:38:36;9.60;99.90
57026;DHT22;43961;52.940;6.834;2022-12-29T12:41:11;9.60;99.90
57026;DHT22;43961;52.940;6.834;2022-12-29T12:44:07;9.60;99.90
57026;DHT22;43961;52.940;6.834;2022-12-29T12:53:33;9.50;99.90
57026;DHT22;43961;52.940;6.834;2022-12-29T12:55:47;9.50;99.90
57026;DHT22;43961;52.940;6.834;2022-12-29T13:03:59;9.50;99.90
57026;DHT22;43961;52.940;6.834;2022-12-29T13:20:44;9.40;99.90
57026;DHT22;43961;52.940;6.834;2022-12-29T13:23:29;9.50;99.90
57026;DHT22;43961;52.940;6.834;2022-12-29T13:26:13;9.50;99.90
57026;DHT22;43961;52.940;6.834;2022-12-29T13:28:56;9.50;99.90
57026;DHT22;43961;52.940;6.834;2022-12-29T13:37:04;9.50;99.90
57026;DHT22;43961;52.940;6.834;2022-12-29T13:39:39;9.50;99.90
57026;DHT22;43961;52.940;6.834;2022-12-29T13:42:06;9.40;99.90
57026;DHT22;43961;52.940;6.834;2022-12-29T13:44:48;9.40;99.90
57026;DHT22;43961;52.940;6.834;2022-12-29T13:47:44;9.40;99.90
57026;DHT22;43961;52.940;6.834;2022-12-29T13:50:21;9.30;99.90
57026;DHT22;43961;52.940;6.834;2022-12-29T13:55:37;9.30;99.90
57026;DHT22;43961;52.940;6.834;2022-12-29T13:58:14;9.30;99.90
57026;DHT22;43961;52.940;6.834;2022-12-29T14:06:27;9.20;99.90
57026;DHT22;43961;52.940;6.834;2022-12-29T14:09:04;9.20;99.90
57026;DHT22;43961;52.940;6.834;2022-12-29T14:11:39;9.20;99.90
57026;DHT22;43961;52.940;6.834;2022-12-29T14:14:20;9.10;99.90
57026;DHT22;43961;52.940;6.834;2022-12-29T14:16:47;9.10;99.90
57026;DHT22;43961;52.940;6.834;2022-12-29T14:19:34;9.10;99.90
57026;DHT22;43961;52.940;6.834;2022-12-29T14:22:04;9.10;99.90
57026;DHT22;43961;52.940;6.834;2022-12-29T14:29:49;9.00;99.90
57026;DHT22;43961;52.940;6.834;2022-12-29T14:37:35;8.80;99.90
57026;DHT22;43961;52.940;6.834;2022-12-29T14:42:49;8.80;99.90
57026;DHT22;43961;52.940;6.834;2022-12-29T14:47:47;8.70;99.90
57026;DHT22;43961;52.940;6.834;2022-12-29T14:50:42;8.70;99.90
57026;DHT22;43961;52.940;6.834;2022-12-29T14:53:46;8.70;99.90
57026;DHT22;43961;52.940;6.834;2022-12-29T14:56:39;8.70;99.90
57026;DHT22;43961;52.940;6.834;2022-12-29T14:59:01;8.70;99.90
57026;DHT22;43961;52.940;6.834;2022-12-29T15:01:49;8.60;99.90
57026;DHT22;43961;52.940;6.834;2022-12-29T15:04:31;8.60;99.90
57026;DHT22;43961;52.940;6.834;2022-12-29T15:06:59;8.60;99.90
57026;DHT22;43961;52.940;6.834;2022-12-29T15:09:37;8.50;99.90
57026;DHT22;43961;52.940;6.834;2022-12-29T15:14:59;8.50;99.90
57026;DHT22;43961;52.940;6.834;2022-12-29T15:17:34;8.40;99.90
57026;DHT22;43961;52.940;6.834;2022-12-29T15:20:24;8.40;99.90
57026;DHT22;43961;52.940;6.834;2022-12-29T15:22:56;8.40;99.90
57026;DHT22;43961;52.940;6.834;2022-12-29T15:25:22;8.40;99.90
57026;DHT22;43961;52.940;6.834;2022-12-29T15:27:54;8.30;99.90
57026;DHT22;43961;52.940;6.834;2022-12-29T15:30:20;8.30;99.90
57026;DHT22;43961;52.940;6.834;2022-12-29T15:32:48;8.30;99.90
57026;DHT22;43961;52.940;6.834;2022-12-29T15:35:30;8.30;99.90
57026;DHT22;43961;52.940;6.834;2022-12-29T15:37:57;8.30;99.90
57026;DHT22;43961;52.940;6.834;2022-12-29T15:40:31;8.30;99.90
57026;DHT22;43961;52.940;6.834;2022-12-29T15:43:29;8.30;99.90
57026;DHT22;43961;52.940;6.834;2022-12-29T15:45:56;8.20;99.90
57026;DHT22;43961;52.940;6.834;2022-12-29T15:48:23;8.20;99.90
57026;DHT22;43961;52.940;6.834;2022-12-29T15:50:50;8.20;99.90
57026;DHT22;43961;52.940;6.834;2022-12-29T15:53:30;8.10;99.90
57026;DHT22;43961;52.940;6.834;2022-12-29T15:56:06;8.10;99.90
57026;DHT22;43961;52.940;6.834;2022-12-29T15:58:41;8.10;99.90
57026;DHT22;43961;52.940;6.834;2022-12-29T16:01:18;8.10;99.90
57026;DHT22;43961;52.940;6.834;2022-12-29T16:03:44;8.10;99.90
57026;DHT22;43961;52.940;6.834;2022-12-29T16:06:36;8.00;99.90
57026;DHT22;43961;52.940;6.834;2022-12-29T16:11:45;8.00;99.90
57026;DHT22;43961;52.940;6.834;2022-12-29T16:14:17;8.00;99.90
57026;DHT22;43961;52.940;6.834;2022-12-29T16:16:45;8.00;99.90
57026;DHT22;43961;52.940;6.834;2022-12-29T16:21:37;8.00;99.90
57026;DHT22;43961;52.940;6.834;2022-12-29T16:24:08;8.00;99.90
57026;DHT22;43961;52.940;6.834;2022-12-29T16:26:34;8.00;99.90
57026;DHT22;43961;52.940;6.834;2022-12-29T16:29:01;8.00;99.90
57026;DHT22;43961;52.940;6.834;2022-12-29T16:31:53;8.00;99.90
57026;DHT22;43961;52.940;6.834;2022-12-29T16:34:43;8.10;99.90
57026;DHT22;43961;52.940;6.834;2022-12-29T16:37:29;8.10;99.90
57026;DHT22;43961;52.940;6.834;2022-12-29T16:39:55;8.10;99.90
57026;DHT22;43961;52.940;6.834;2022-12-29T16:42:46;8.10;99.90
57026;DHT22;43961;52.940;6.834;2022-12-29T16:50:34;8.00;99.90
57026;DHT22;43961;52.940;6.834;2022-12-29T16:53:01;8.10;99.90
57026;DHT22;43961;52.940;6.834;2022-12-29T16:55:29;8.00;99.90
57026;DHT22;43961;52.940;6.834;2022-12-29T16:57:55;8.00;99.90
57026;DHT22;43961;52.940;6.834;2022-12-29T17:00:35;8.00;99.90
57026;DHT22;43961;52.940;6.834;2022-12-29T17:03:01;7.90;99.90
57026;DHT22;43961;52.940;6.834;2022-12-29T17:05:29;7.70;99.90
57026;DHT22;43961;52.940;6.834;2022-12-29T17:07:55;7.60;99.90
57026;DHT22;43961;52.940;6.834;2022-12-29T17:10:26;7.50;99.90
57026;DHT22;43961;52.940;6.834;2022-12-29T17:13:12;7.40;99.90
57026;DHT22;43961;52.940;6.834;2022-12-29T17:15:37;7.30;99.90
57026;DHT22;43961;52.940;6.834;2022-12-29T17:18:03;7.30;99.90
57026;DHT22;43961;52.940;6.834;2022-12-29T17:20:31;7.20;99.90
57026;DHT22;43961;52.940;6.834;2022-12-29T17:22:58;7.20;99.90
57026;DHT22;43961;52.940;6.834;2022-12-29T17:25:35;7.20;99.90
57026;DHT22;43961;52.940;6.834;2022-12-29T17:28:11;7.10;99.90
57026;DHT22;43961;52.940;6.834;2022-12-29T17:30:39;7.10;99.90
57026;DHT22;43961;52.940;6.834;2022-12-29T17:33:08;7.10;99.90
57026;DHT22;43961;52.940;6.834;2022-12-29T17:35:34;7.10;99.90
57026;DHT22;43961;52.940;6.834;2022-12-29T17:38:00;7.10;99.90
57026;DHT22;43961;52.940;6.834;2022-12-29T17:40:28;7.00;99.90
57026;DHT22;43961;52.940;6.834;2022-12-29T17:42:56;7.00;99.90
57026;DHT22;43961;52.940;6.834;2022-12-29T17:45:28;7.00;99.90
57026;DHT22;43961;52.940;6.834;2022-12-29T17:47:55;6.90;99.90
57026;DHT22;43961;52.940;6.834;2022-12-29T17:50:24;7.00;99.90
57026;DHT22;43961;52.940;6.834;2022-12-29T17:53:03;7.00;99.90
57026;DHT22;43961;52.940;6.834;2022-12-29T17:55:29;7.00;99.90
57026;DHT22;43961;52.940;6.834;2022-12-29T17:57:55;7.00;99.90
57026;DHT22;43961;52.940;6.834;2022-12-29T18:00:26;7.00;99.90
57026;DHT22;43961;52.940;6.834;2022-12-29T18:02:53;7.00;99.90
57026;DHT22;43961;52.940;6.834;2022-12-29T18:05:22;7.00;99.90
57026;DHT22;43961;52.940;6.834;2022-12-29T18:07:50;7.10;99.90
57026;DHT22;43961;52.940;6.834;2022-12-29T18:10:17;7.00;99.90
57026;DHT22;43961;52.940;6.834;2022-12-29T18:12:44;7.00;99.90
57026;DHT22;43961;52.940;6.834;2022-12-29T18:15:21;7.10;99.90
57026;DHT22;43961;52.940;6.834;2022-12-29T18:17:47;7.10;99.90
57026;DHT22;43961;52.940;6.834;2022-12-29T18:20:14;7.10;99.90
57026;DHT22;43961;52.940;6.834;2022-12-29T18:22:41;7.10;99.90
57026;DHT22;43961;52.940;6.834;2022-12-29T18:25:38;7.20;99.90
57026;DHT22;43961;52.940;6.834;2022-12-29T18:28:04;7.20;99.90
57026;DHT22;43961;52.940;6.834;2022-12-29T18:30:30;7.30;99.90
57026;DHT22;43961;52.940;6.834;2022-12-29T18:32:56;7.20;99.90